createdAt,value
2022-12-13T00:00:00.412Z,4.5
2022-12-13T00:05:00.413Z,4.9
2022-12-13T00:10:00.439Z,6.7
2022-12-13T00:15:00.395Z,4.5
2022-12-13T00:20:00.513Z,6.4
2022-12-13T00:25:00.428Z,5.6
2022-12-13T00:30:00.488Z,8.0
2022-12-13T00:35:00.402Z,5.2
2022-12-13T00:40:00.383Z,7.1
2022-12-13T00:45:00.395Z,5.1
2022-12-13T00:50:00.378Z,4.9
2022-12-13T00:55:00.364Z,7.7
2022-12-13T01:00:00.405Z,4.1
2022-12-13T01:05:00.381Z,8.2
2022-12-13T01:10:00.896Z,6.8
2022-12-13T01:15:00.444Z,5.3
2022-12-13T01:20:00.406Z,6.0
2022-12-13T01:25:00.411Z,5.1
2022-12-13T01:30:00.591Z,4.8
2022-12-13T01:35:00.421Z,5.6
2022-12-13T01:40:00.411Z,5.6
2022-12-13T01:45:00.420Z,4.9
2022-12-13T01:50:00.413Z,5.2
2022-12-13T01:55:10.314Z,7.2
2022-12-13T02:00:00.402Z,7.8
2022-12-13T02:05:00.495Z,9.4
2022-12-13T02:10:00.472Z,6.0
2022-12-13T02:15:01.339Z,4.8
2022-12-13T02:20:00.372Z,4.8
2022-12-13T02:25:00.399Z,4.1
2022-12-13T02:30:00.407Z,4.5
2022-12-13T02:35:00.407Z,6.8
2022-12-13T02:40:00.394Z,6.3
2022-12-13T02:45:00.463Z,4.1
2022-12-13T02:50:00.429Z,5.3
2022-12-13T02:55:00.401Z,5.3
2022-12-13T03:00:00.372Z,4.9
2022-12-13T03:05:00.399Z,6.4
2022-12-13T03:10:00.402Z,4.9
2022-12-13T03:15:00.373Z,4.0
2022-12-13T03:20:00.377Z,5.4
2022-12-13T03:25:00.400Z,7.0
2022-12-13T03:30:00.407Z,5.8
2022-12-13T03:35:12.278Z,2.5
2022-12-13T03:40:00.399Z,3.3
2022-12-13T03:45:00.404Z,1.0
2022-12-13T03:50:25.948Z,0.9
2022-12-13T03:55:00.369Z,0.6
2022-12-13T04:00:00.392Z,0.5
2022-12-13T04:05:01.044Z,2.6
2022-12-13T04:10:00.407Z,3.1
2022-12-13T04:15:00.367Z,4.7
2022-12-13T04:20:00.363Z,2.5
2022-12-13T04:25:00.400Z,4.0
2022-12-13T04:30:00.380Z,2.7
2022-12-13T04:35:10.309Z,5.0
2022-12-13T04:40:01.442Z,6.2
2022-12-13T04:45:00.365Z,4.8
2022-12-13T04:50:00.460Z,4.0
2022-12-13T04:55:00.477Z,4.7
2022-12-13T05:00:00.367Z,4.7
2022-12-13T05:05:00.410Z,5.7
2022-12-13T05:10:00.376Z,4.8
2022-12-13T05:15:00.423Z,8.9
2022-12-13T05:20:00.413Z,5.1
2022-12-13T05:25:00.376Z,9.2
2022-12-13T05:30:05.160Z,7.1
2022-12-13T05:35:00.421Z,5.5
2022-12-13T05:40:00.440Z,4.1
2022-12-13T05:45:00.437Z,6.6
2022-12-13T05:50:00.407Z,5.8
2022-12-13T05:55:01.369Z,4.9
2022-12-13T06:00:00.376Z,3.6
2022-12-13T06:05:00.399Z,5.8
2022-12-13T06:10:10.984Z,6.4
2022-12-13T06:15:01.672Z,6.6
2022-12-13T06:20:00.476Z,6.1
2022-12-13T06:25:00.414Z,2.6
2022-12-13T06:30:03.081Z,6.2
2022-12-13T06:35:00.418Z,2.6
2022-12-13T06:40:00.463Z,4.5
2022-12-13T06:45:00.403Z,3.2
2022-12-13T06:50:05.882Z,4.0
2022-12-13T06:55:00.400Z,4.5
2022-12-13T07:00:00.401Z,5.3
2022-12-13T07:05:00.439Z,3.8
2022-12-13T07:10:00.418Z,3.6
2022-12-13T07:15:00.416Z,5.1
2022-12-13T07:20:01.466Z,5.9
2022-12-13T07:25:00.421Z,4.2
2022-12-13T07:30:00.395Z,6.6
2022-12-13T07:35:00.395Z,3.1
2022-12-13T07:40:04.777Z,5.6
2022-12-13T07:45:00.411Z,2.9
2022-12-13T07:50:01.929Z,3.4
2022-12-13T07:55:01.421Z,3.4
2022-12-13T08:00:00.461Z,4.0
2022-12-13T08:05:26.233Z,4.0
2022-12-13T08:10:00.400Z,6.3
2022-12-13T08:15:00.420Z,3.3
2022-12-13T08:20:00.373Z,3.6
2022-12-13T08:25:03.054Z,7.0
2022-12-13T08:30:00.405Z,3.6
2022-12-13T08:35:00.390Z,2.1
2022-12-13T08:40:00.372Z,3.9
2022-12-13T08:45:00.408Z,5.7
2022-12-13T08:50:03.696Z,4.6
2022-12-13T08:55:00.404Z,3.6
2022-12-13T09:00:00.445Z,4.0
2022-12-13T09:05:00.406Z,4.4
2022-12-13T09:10:26.127Z,3.7
2022-12-13T09:15:01.958Z,1.6
2022-12-13T09:20:00.664Z,0.8
2022-12-13T09:25:03.223Z,4.0
2022-12-13T09:30:00.393Z,3.4
2022-12-13T09:35:00.399Z,2.8
2022-12-13T09:40:00.384Z,2.1
2022-12-13T09:45:03.898Z,3.4
2022-12-13T09:50:04.271Z,5.5
2022-12-13T09:55:00.391Z,3.3
2022-12-13T10:00:02.415Z,3.4
2022-12-13T10:05:02.075Z,0.7
2022-12-13T10:20:00.493Z,2.4
2022-12-13T10:25:00.509Z,3.9
2022-12-13T10:30:00.449Z,5.4
2022-12-13T10:35:00.434Z,4.5
2022-12-13T10:40:00.460Z,3.8
2022-12-13T10:45:00.469Z,3.3
2022-12-13T10:50:00.441Z,5.5
2022-12-13T10:55:01.642Z,4.1
2022-12-13T11:00:00.461Z,3.0
2022-12-13T11:05:00.440Z,1.7
2022-12-13T11:10:05.686Z,1.5
2022-12-13T11:15:00.434Z,3.5
2022-12-13T11:20:00.443Z,2.2
2022-12-13T11:25:00.455Z,0.6
2022-12-13T11:30:00.459Z,2.8
2022-12-13T11:35:02.874Z,1.3
2022-12-13T11:40:02.117Z,1.2
2022-12-13T11:45:00.440Z,1.6
2022-12-13T11:50:00.433Z,4.1
2022-12-13T11:55:00.700Z,2.7
2022-12-13T12:00:02.102Z,2.5
2022-12-13T12:05:01.378Z,2.6
2022-12-13T12:10:00.431Z,3.8
2022-12-13T12:15:05.000Z,2.5
2022-12-13T12:20:00.542Z,2.0
2022-12-13T12:25:00.463Z,3.6
2022-12-13T12:30:00.439Z,1.5
2022-12-13T12:35:00.436Z,1.6
2022-12-13T12:40:00.440Z,2.2
2022-12-13T12:45:00.438Z,1.0
2022-12-13T12:50:00.441Z,4.0
2022-12-13T12:55:00.432Z,0.7
2022-12-13T13:00:02.249Z,1.1
2022-12-13T13:05:00.433Z,2.6
2022-12-13T13:10:16.985Z,0.2
2022-12-13T13:15:00.439Z,2.9
2022-12-13T13:20:12.186Z,1.4
2022-12-13T13:25:00.436Z,1.5
2022-12-13T13:30:00.433Z,2.4
2022-12-13T13:35:01.044Z,0.9
2022-12-13T13:40:00.492Z,2.0
2022-12-13T13:45:00.468Z,3.4
2022-12-13T13:50:02.851Z,2.8
2022-12-13T13:55:00.480Z,1.5
2022-12-13T14:00:00.426Z,0.4
2022-12-13T14:05:00.438Z,0.2
2022-12-13T14:10:00.467Z,0.0
2022-12-13T14:15:01.689Z,1.6
2022-12-13T14:20:00.544Z,1.6
2022-12-13T14:25:00.429Z,1.6
2022-12-13T14:30:00.423Z,0.6
2022-12-13T14:35:24.624Z,0.2
2022-12-13T14:40:00.460Z,1.4
2022-12-13T14:45:00.442Z,0.3
2022-12-13T14:50:00.479Z,0.3
2022-12-13T14:55:00.437Z,0.0
2022-12-13T15:00:00.460Z,0.5
2022-12-13T15:05:00.431Z,0.1
2022-12-13T15:10:00.457Z,0.1
2022-12-13T15:15:00.440Z,0.7
2022-12-13T15:20:00.618Z,0.0
2022-12-13T15:25:00.435Z,0.0
2022-12-13T15:30:00.441Z,0.5
2022-12-13T15:35:00.436Z,0.2
2022-12-13T15:40:00.543Z,0.0
2022-12-13T15:45:00.435Z,0.0
2022-12-13T15:50:01.582Z,0.0
2022-12-13T16:00:00.701Z,0.0
2022-12-13T16:05:00.655Z,0.0
2022-12-13T16:10:00.673Z,0.0
2022-12-13T16:15:09.839Z,0.0
2022-12-13T16:20:09.643Z,0.0
2022-12-13T16:25:00.647Z,0.0
2022-12-13T16:30:00.862Z,0.0
2022-12-13T16:35:00.677Z,0.0
2022-12-13T16:40:00.861Z,0.0
2022-12-13T16:45:40.403Z,0.0
2022-12-13T16:50:00.672Z,0.0
2022-12-13T16:55:00.661Z,0.0
2022-12-13T17:00:00.664Z,0.0
2022-12-13T17:05:00.663Z,0.0
2022-12-13T17:10:00.661Z,0.0
2022-12-13T17:15:00.673Z,0.0
2022-12-13T17:20:00.989Z,0.0
2022-12-13T17:25:00.769Z,0.0
2022-12-13T17:30:00.641Z,0.0
2022-12-13T17:35:00.662Z,0.0
2022-12-13T17:40:00.651Z,0.0
2022-12-13T17:45:00.695Z,0.0
2022-12-13T17:50:00.658Z,0.0
2022-12-13T17:55:00.673Z,0.0
2022-12-13T18:00:00.694Z,0.0
2022-12-13T18:05:00.681Z,0.0
2022-12-13T18:10:00.693Z,0.0
2022-12-13T18:15:00.680Z,0.0
2022-12-13T18:20:00.731Z,0.0
2022-12-13T18:25:00.660Z,0.0
2022-12-13T18:30:01.487Z,0.0
2022-12-13T18:35:00.654Z,0.0
2022-12-13T18:40:00.696Z,0.0
2022-12-13T18:45:00.653Z,0.0
2022-12-13T18:50:00.674Z,0.3
2022-12-13T18:55:00.679Z,0.0
2022-12-13T19:00:00.647Z,0.0
2022-12-13T19:05:00.674Z,0.0
2022-12-13T19:10:00.636Z,0.3
2022-12-13T19:15:00.693Z,0.6
2022-12-13T19:20:00.722Z,0.0
2022-12-13T19:25:00.649Z,0.0
2022-12-13T19:30:00.663Z,0.0
2022-12-13T19:35:00.656Z,0.0
2022-12-13T19:40:00.650Z,0.0
2022-12-13T19:45:00.648Z,0.0
2022-12-13T19:50:00.678Z,0.1
2022-12-13T19:55:00.644Z,0.0
2022-12-13T20:00:00.675Z,0.0
2022-12-13T20:05:00.680Z,0.0
2022-12-13T20:10:00.641Z,0.0
2022-12-13T20:15:00.722Z,0.0
2022-12-13T20:20:00.817Z,0.0
2022-12-13T20:25:00.654Z,0.0
2022-12-13T20:30:00.654Z,0.2
2022-12-13T20:35:00.667Z,0.2
2022-12-13T20:40:00.640Z,0.7
2022-12-13T20:45:00.660Z,0.0
2022-12-13T20:50:00.693Z,0.0
2022-12-13T20:55:00.699Z,0.0
2022-12-13T21:00:00.675Z,0.1
2022-12-13T21:05:00.677Z,0.2
2022-12-13T21:10:00.648Z,0.1
2022-12-13T21:15:00.667Z,0.0
2022-12-13T21:20:00.770Z,0.0
2022-12-13T21:25:00.663Z,0.0
2022-12-13T21:30:00.655Z,0.0
2022-12-13T21:35:00.664Z,0.2
2022-12-13T21:40:00.649Z,0.0
2022-12-13T21:45:02.738Z,0.0
2022-12-13T21:50:00.655Z,0.0
2022-12-13T21:55:37.671Z,0.0
2022-12-13T22:00:00.735Z,0.0
2022-12-13T22:05:00.650Z,0.0
2022-12-13T22:10:00.676Z,0.0
2022-12-13T22:15:00.665Z,0.0
2022-12-13T22:20:00.846Z,0.0
2022-12-13T22:25:00.674Z,0.0
2022-12-13T22:30:00.670Z,0.0
2022-12-13T22:35:00.656Z,0.0
2022-12-13T22:40:00.791Z,0.0
2022-12-13T22:45:00.626Z,0.0
2022-12-13T22:50:00.648Z,0.0
2022-12-13T22:55:00.658Z,0.0
2022-12-13T23:00:00.618Z,0.0
2022-12-13T23:05:00.655Z,0.0
2022-12-13T23:20:00.655Z,0.0
2022-12-13T23:25:00.432Z,0.0
2022-12-13T23:30:00.436Z,0.0
2022-12-13T23:35:00.425Z,0.0
2022-12-13T23:40:00.440Z,0.0
2022-12-13T23:45:00.458Z,0.0
2022-12-13T23:50:00.482Z,0.0
2022-12-13T23:55:00.429Z,0.0
